Time;durP1;ratioP1;P1;durP2;ratioP2;P2;SDS_P1;SDS_P2;PMS_P1;PMS_P2;Temp;Humidity;BMP_temperature;BMP_pressure;BME280_temperature;BME280_humidity;BME280_pressure;Samples;Min_cycle;Max_cycle;Signal;HPM_P1;HPM_P2
2020/12/02 00:00:59;;;;;;;114.07;33.47;;;-3.20;99.90;;;;;;4855125;29;20220;-66
2020/12/02 00:03:33;;;;;;;112.03;32.47;;;-3.30;99.90;;;;;;4854286;29;20729;-66
2020/12/02 00:06:01;;;;;;;114.97;34.47;;;-3.30;99.90;;;;;;4842568;29;20276;-67
2020/12/02 00:08:32;;;;;;;112.67;32.50;;;-3.20;99.90;;;;;;4855186;29;20217;-66
2020/12/02 00:10:59;;;;;;;122.60;32.67;;;-3.30;99.90;;;;;;4886229;29;20206;-66
2020/12/02 00:13:33;;;;;;;111.27;32.43;;;-3.30;99.90;;;;;;4903767;29;20297;-66
2020/12/02 00:16:01;;;;;;;123.63;34.80;;;-3.30;99.90;;;;;;4908394;29;20217;-67
2020/12/02 00:18:32;;;;;;;128.73;33.47;;;-3.30;99.90;;;;;;4910292;29;20218;-66
2020/12/02 00:20:59;;;;;;;128.97;33.03;;;-3.30;99.90;;;;;;4922674;29;20206;-66
2020/12/02 00:23:26;;;;;;;107.87;30.90;;;-3.30;99.90;;;;;;4973381;28;20230;-66
2020/12/02 00:25:53;;;;;;;128.67;34.77;;;-3.40;99.90;;;;;;5021975;28;20203;-66
2020/12/02 00:28:19;;;;;;;124.53;35.80;;;-3.40;99.90;;;;;;5029983;28;20256;-65
2020/12/02 00:30:47;;;;;;;119.47;34.57;;;-3.40;99.90;;;;;;5027222;28;20213;-65
2020/12/02 00:33:16;;;;;;;111.97;33.23;;;-3.40;99.90;;;;;;5031203;28;20194;-65
2020/12/02 00:35:43;;;;;;;126.73;36.23;;;-3.40;99.90;;;;;;5028876;28;20210;-66
2020/12/02 00:38:12;;;;;;;155.70;43.50;;;-3.40;99.90;;;;;;5025193;28;20245;-65
2020/12/02 00:40:44;;;;;;;131.83;40.67;;;-3.40;99.90;;;;;;5009416;28;20206;-66
2020/12/02 00:43:11;;;;;;;138.30;41.60;;;-3.40;99.90;;;;;;5011128;28;20338;-66
2020/12/02 00:45:38;;;;;;;129.27;39.03;;;-3.40;99.90;;;;;;5009759;28;20581;-66
2020/12/02 00:48:10;;;;;;;120.43;36.50;;;-3.40;99.90;;;;;;5005935;28;20254;-66
2020/12/02 00:50:38;;;;;;;110.67;33.47;;;-3.40;99.90;;;;;;4963966;28;20200;-65
2020/12/02 00:53:08;;;;;;;108.57;33.93;;;-3.40;99.90;;;;;;4970622;28;20241;-65
2020/12/02 00:55:35;;;;;;;97.50;31.90;;;-3.50;99.90;;;;;;4971211;28;20220;-67
2020/12/02 00:58:04;;;;;;;107.63;32.37;;;-3.50;99.90;;;;;;4927764;29;20218;-67
2020/12/02 01:00:37;;;;;;;94.67;29.80;;;-3.60;99.90;;;;;;4894352;29;20203;-67
2020/12/02 01:03:09;;;;;;;101.20;30.47;;;-3.60;99.90;;;;;;4895025;29;20351;-67
2020/12/02 01:05:37;;;;;;;107.10;30.93;;;-3.70;99.90;;;;;;4893819;29;20640;-67
2020/12/02 01:08:20;;;;;;;116.07;32.57;;;-3.70;99.90;;;;;;4894296;29;20278;-67
2020/12/02 01:10:52;;;;;;;124.73;33.80;;;-3.80;99.90;;;;;;4894674;29;20227;-65
2020/12/02 01:13:19;;;;;;;112.70;31.70;;;-3.80;99.90;;;;;;4913856;29;20198;-66
2020/12/02 01:15:46;;;;;;;120.60;34.50;;;-3.80;99.90;;;;;;4912942;29;20223;-66
2020/12/02 01:18:24;;;;;;;145.70;39.93;;;-3.90;99.90;;;;;;4913955;29;20227;-66
2020/12/02 01:21:00;;;;;;;129.90;37.30;;;-3.90;99.90;;;;;;4912288;29;20218;-65
2020/12/02 01:23:28;;;;;;;154.27;44.07;;;-3.90;99.90;;;;;;4921894;29;20214;-65
2020/12/02 01:25:55;;;;;;;174.07;48.00;;;-3.90;99.90;;;;;;4895051;29;20674;-65
2020/12/02 01:28:27;;;;;;;158.77;46.87;;;-3.90;99.90;;;;;;4920946;29;20223;-65
2020/12/02 01:30:57;;;;;;;138.20;42.00;;;-3.90;99.90;;;;;;4916536;29;20216;-66
2020/12/02 01:33:24;;;;;;;122.80;38.17;;;-3.90;99.90;;;;;;4950891;28;20288;-66
2020/12/02 01:35:52;;;;;;;139.03;41.90;;;-3.90;99.90;;;;;;4950390;28;20213;-65
2020/12/02 01:38:26;;;;;;;150.03;41.90;;;-4.00;99.90;;;;;;4951016;28;20634;-66
2020/12/02 01:40:53;;;;;;;135.63;43.53;;;-4.00;99.90;;;;;;4950408;29;20679;-66
2020/12/02 01:43:20;;;;;;;151.17;44.67;;;-3.90;99.90;;;;;;4948712;28;20252;-65
2020/12/02 01:45:49;;;;;;;139.20;41.97;;;-4.00;99.90;;;;;;4931857;29;20225;-66
2020/12/02 01:48:40;;;;;;;147.13;44.47;;;-4.00;99.90;;;;;;4931588;29;20205;-66
2020/12/02 01:51:11;;;;;;;160.17;44.93;;;-4.00;99.90;;;;;;4929324;29;20218;-66
2020/12/02 01:53:47;;;;;;;152.83;42.17;;;-4.00;99.90;;;;;;4941086;28;20203;-66
2020/12/02 01:56:22;;;;;;;153.67;45.13;;;-4.00;99.90;;;;;;4989958;28;20658;-66
2020/12/02 01:59:03;;;;;;;139.03;39.47;;;-4.00;99.90;;;;;;4982876;28;20241;-65
2020/12/02 02:01:43;;;;;;;159.00;44.40;;;-4.00;99.90;;;;;;5008405;28;20571;-67
2020/12/02 02:04:14;;;;;;;141.37;42.20;;;-4.00;99.90;;;;;;5030176;28;20237;-67
2020/12/02 02:07:02;;;;;;;147.53;39.90;;;-4.10;99.90;;;;;;5011650;28;20205;-66
2020/12/02 02:09:30;;;;;;;130.23;37.17;;;-4.10;99.90;;;;;;5009234;28;20222;-67
2020/12/02 02:12:19;;;;;;;132.23;40.87;;;-4.10;99.90;;;;;;5002152;28;20545;-66
2020/12/02 02:14:54;;;;;;;112.53;35.13;;;-4.10;99.90;;;;;;5008468;28;20194;-66
2020/12/02 02:17:21;;;;;;;115.80;36.50;;;-4.10;99.90;;;;;;5014888;28;20210;-66
2020/12/02 02:19:49;;;;;;;98.70;30.83;;;-4.20;99.90;;;;;;5020191;28;20213;-66
2020/12/02 02:22:15;;;;;;;114.87;34.90;;;-4.20;99.90;;;;;;5020942;28;20215;-67
2020/12/02 02:24:45;;;;;;;113.83;33.43;;;-4.20;99.90;;;;;;5021550;28;20689;-66
2020/12/02 02:27:14;;;;;;;120.87;36.20;;;-4.20;99.90;;;;;;5013868;28;20214;-66
2020/12/02 02:29:42;;;;;;;132.17;37.27;;;-4.20;99.90;;;;;;5028006;28;20206;-66
2020/12/02 02:32:12;;;;;;;152.07;43.60;;;-4.20;99.90;;;;;;5016496;28;20238;-67
2020/12/02 02:34:47;;;;;;;140.67;42.33;;;-4.20;99.90;;;;;;5027226;28;20202;-67
2020/12/02 02:37:15;;;;;;;137.13;40.00;;;-4.30;99.90;;;;;;5027867;28;20671;-67
2020/12/02 02:39:42;;;;;;;131.13;40.43;;;-4.30;99.90;;;;;;5027512;28;20282;-67
2020/12/02 02:42:24;;;;;;;121.63;36.27;;;-4.30;99.90;;;;;;5007634;28;20234;-67
2020/12/02 02:44:52;;;;;;;110.00;33.83;;;-4.20;99.90;;;;;;5027847;28;20230;-68
2020/12/02 02:47:19;;;;;;;103.70;31.73;;;-4.20;99.90;;;;;;4965296;28;20212;-67
2020/12/02 02:49:46;;;;;;;92.63;28.37;;;-4.20;99.90;;;;;;4929771;29;20285;-67
2020/12/02 02:52:13;;;;;;;82.70;26.70;;;-4.20;99.90;;;;;;4930391;29;20238;-67
2020/12/02 02:54:40;;;;;;;75.50;24.67;;;-4.20;99.90;;;;;;4930605;29;20237;-67
2020/12/02 02:57:07;;;;;;;79.00;24.63;;;-4.20;99.90;;;;;;4947901;29;20223;-67
2020/12/02 02:59:35;;;;;;;69.13;23.20;;;-4.20;99.90;;;;;;4947172;29;20213;-67
2020/12/02 03:02:03;;;;;;;67.60;21.83;;;-4.20;99.90;;;;;;4945821;29;20209;-68
2020/12/02 03:04:30;;;;;;;65.53;21.37;;;-4.20;99.90;;;;;;4944653;29;20609;-67
2020/12/02 03:06:57;;;;;;;65.27;21.60;;;-4.30;99.90;;;;;;4935995;29;20635;-67
2020/12/02 03:09:23;;;;;;;66.90;22.27;;;-4.30;99.90;;;;;;4943376;29;20216;-67
2020/12/02 03:11:54;;;;;;;73.47;24.23;;;-4.30;99.90;;;;;;4949081;29;20220;-67
2020/12/02 03:14:21;;;;;;;70.03;22.77;;;-4.40;99.90;;;;;;4949089;29;20228;-67
2020/12/02 03:16:51;;;;;;;65.20;22.30;;;-4.40;99.90;;;;;;4946361;29;20228;-66
2020/12/02 03:19:23;;;;;;;76.30;22.73;;;-4.40;99.90;;;;;;4997074;28;20342;-66
2020/12/02 03:21:51;;;;;;;57.67;20.90;;;-4.40;99.90;;;;;;4993566;28;20270;-66
2020/12/02 03:24:18;;;;;;;70.83;23.57;;;-4.40;99.90;;;;;;4980072;28;20227;-67
2020/12/02 03:26:48;;;;;;;74.97;23.43;;;-4.40;99.90;;;;;;4979339;28;20208;-66
2020/12/02 03:29:15;;;;;;;69.77;22.73;;;-4.40;99.90;;;;;;4987338;28;20602;-66
2020/12/02 03:31:42;;;;;;;74.37;24.47;;;-4.30;99.90;;;;;;4988909;28;20199;-67
2020/12/02 03:34:16;;;;;;;76.73;24.67;;;-4.20;99.90;;;;;;5006125;28;20199;-66
2020/12/02 03:36:42;;;;;;;69.03;23.37;;;-4.20;99.90;;;;;;5006971;28;20218;-67
2020/12/02 03:39:11;;;;;;;86.30;26.70;;;-4.20;99.90;;;;;;5007538;28;20207;-66
2020/12/02 03:41:39;;;;;;;84.87;25.03;;;-4.10;99.90;;;;;;5027432;28;20210;-65
2020/12/02 03:44:07;;;;;;;80.37;25.07;;;-4.00;99.90;;;;;;5006298;28;20231;-66
2020/12/02 03:46:34;;;;;;;81.60;24.60;;;-4.00;99.90;;;;;;4987893;28;20317;-66
2020/12/02 03:49:02;;;;;;;70.13;22.53;;;-3.90;99.90;;;;;;4948015;29;20220;-66
2020/12/02 03:51:31;;;;;;;79.47;24.57;;;-3.80;99.90;;;;;;4910446;29;20209;-66
2020/12/02 03:53:58;;;;;;;98.50;29.00;;;-3.80;99.90;;;;;;4898218;29;20298;-66
2020/12/02 03:56:25;;;;;;;90.57;26.93;;;-3.70;99.90;;;;;;4910191;29;20218;-66
2020/12/02 03:58:52;;;;;;;85.37;25.93;;;-3.70;99.90;;;;;;4908151;29;20317;-66
2020/12/02 04:01:18;;;;;;;87.60;26.80;;;-3.60;99.90;;;;;;4903349;29;20210;-66
2020/12/02 04:03:45;;;;;;;80.67;25.23;;;-3.60;99.90;;;;;;4900127;29;20680;-66
2020/12/02 04:06:12;;;;;;;75.43;25.43;;;-3.50;99.90;;;;;;4895960;29;20307;-66
2020/12/02 04:08:41;;;;;;;99.57;28.40;;;-3.40;99.90;;;;;;4895515;29;20663;-66
2020/12/02 04:11:09;;;;;;;86.47;27.70;;;-3.40;99.90;;;;;;4886670;29;20203;-66
2020/12/02 04:13:36;;;;;;;94.00;29.10;;;-3.40;99.90;;;;;;4868398;29;20580;-66
2020/12/02 04:16:03;;;;;;;98.30;30.13;;;-3.40;99.90;;;;;;4876443;29;20212;-67
2020/12/02 04:18:31;;;;;;;95.43;31.40;;;-3.50;99.90;;;;;;4882057;29;20214;-67
2020/12/02 04:20:58;;;;;;;90.43;29.53;;;-3.50;99.90;;;;;;4908739;29;20290;-67
2020/12/02 04:23:25;;;;;;;109.20;31.07;;;-3.50;99.90;;;;;;4966225;28;20566;-67
2020/12/02 04:25:53;;;;;;;89.00;30.93;;;-3.50;99.90;;;;;;4997286;28;20335;-67
2020/12/02 04:28:20;;;;;;;95.13;31.17;;;-3.60;99.90;;;;;;4992542;28;20216;-67
2020/12/02 04:30:47;;;;;;;106.40;34.73;;;-3.60;99.90;;;;;;4996145;28;20230;-67
2020/12/02 04:33:16;;;;;;;119.73;35.47;;;-3.70;99.90;;;;;;4981909;28;20199;-67
2020/12/02 04:35:43;;;;;;;109.33;35.93;;;-3.70;99.90;;;;;;4978225;28;20307;-67
2020/12/02 04:38:09;;;;;;;112.30;36.30;;;-3.80;99.90;;;;;;4978501;28;20211;-67
2020/12/02 04:40:39;;;;;;;129.97;36.93;;;-3.90;99.90;;;;;;4978535;28;20314;-67
2020/12/02 04:43:13;;;;;;;116.03;37.40;;;-3.90;99.90;;;;;;4982571;28;20307;-66
2020/12/02 04:45:41;;;;;;;111.00;33.93;;;-3.90;99.90;;;;;;4972770;28;20215;-66
2020/12/02 04:48:14;;;;;;;114.00;36.20;;;-4.00;99.90;;;;;;4908734;29;20311;-66
2020/12/02 04:50:40;;;;;;;128.77;38.20;;;-4.00;99.90;;;;;;4908853;29;20312;-66
2020/12/02 04:53:13;;;;;;;130.93;38.17;;;-4.00;99.90;;;;;;4887568;29;20581;-67
2020/12/02 04:55:41;;;;;;;128.67;38.70;;;-4.10;99.90;;;;;;4917865;29;20222;-66
2020/12/02 04:58:18;;;;;;;115.50;35.63;;;-4.10;99.90;;;;;;4914344;29;20298;-65
2020/12/02 05:00:45;;;;;;;133.17;38.87;;;-4.10;99.90;;;;;;4913294;29;20846;-65
2020/12/02 05:03:14;;;;;;;122.30;38.67;;;-4.10;99.90;;;;;;4913388;29;20696;-66
2020/12/02 05:05:40;;;;;;;122.67;37.30;;;-4.10;99.90;;;;;;4893891;29;20288;-66
2020/12/02 05:08:25;;;;;;;116.73;37.57;;;-4.10;99.90;;;;;;4898168;29;20215;-66
2020/12/02 05:10:53;;;;;;;111.13;33.47;;;-4.10;99.90;;;;;;4930791;29;20210;-66
2020/12/02 05:13:21;;;;;;;127.03;40.90;;;-4.20;99.90;;;;;;4929669;29;20209;-66
2020/12/02 05:15:48;;;;;;;141.87;41.13;;;-4.20;99.90;;;;;;4944764;29;20212;-66
2020/12/02 05:18:24;;;;;;;138.73;43.17;;;-4.20;99.90;;;;;;4945900;29;20205;-67
2020/12/02 05:21:18;;;;;;;137.13;41.07;;;-4.20;99.90;;;;;;4935939;29;20298;-66
2020/12/02 05:24:01;;;;;;;156.03;45.83;;;-4.30;99.90;;;;;;4928950;29;20226;-67
2020/12/02 05:26:28;;;;;;;151.43;45.07;;;-4.30;99.90;;;;;;4957278;28;20287;-66
2020/12/02 05:28:56;;;;;;;178.47;51.43;;;-4.40;99.90;;;;;;4961689;28;20200;-66
2020/12/02 05:31:27;;;;;;;168.17;50.03;;;-4.40;99.90;;;;;;4962499;28;20300;-67
2020/12/02 05:33:54;;;;;;;185.10;52.43;;;-4.50;99.90;;;;;;4913629;29;20221;-67
2020/12/02 05:36:30;;;;;;;171.97;51.77;;;-4.60;99.90;;;;;;4904228;29;20685;-67
2020/12/02 05:39:02;;;;;;;175.13;50.93;;;-4.60;99.90;;;;;;4898619;29;20225;-67
2020/12/02 05:41:29;;;;;;;156.30;48.07;;;-4.70;99.90;;;;;;4870634;29;20675;-67
2020/12/02 05:44:02;;;;;;;161.30;48.43;;;-4.70;99.90;;;;;;4856256;29;20228;-67
2020/12/02 05:46:33;;;;;;;154.67;45.83;;;-4.70;99.90;;;;;;4865917;29;20212;-67
2020/12/02 05:49:06;;;;;;;154.47;47.40;;;-4.70;99.90;;;;;;4874598;29;20220;-67
2020/12/02 05:51:33;;;;;;;154.40;44.50;;;-4.70;99.90;;;;;;4861244;29;20226;-67
2020/12/02 05:54:05;;;;;;;128.93;41.67;;;-4.80;99.90;;;;;;4893805;29;20213;-67
2020/12/02 05:56:31;;;;;;;138.27;42.80;;;-4.90;99.90;;;;;;4895055;29;20211;-66
2020/12/02 05:59:01;;;;;;;158.17;45.00;;;-4.90;99.90;;;;;;4889758;29;20746;-66
2020/12/02 06:01:29;;;;;;;123.57;39.93;;;-4.90;99.90;;;;;;4885892;29;20220;-67
2020/12/02 06:03:57;;;;;;;127.83;41.03;;;-5.00;99.90;;;;;;4888836;29;20239;-67
2020/12/02 06:06:30;;;;;;;124.03;37.70;;;-5.00;99.90;;;;;;4886772;29;20212;-66
2020/12/02 06:08:57;;;;;;;121.10;37.40;;;-4.90;99.90;;;;;;4883833;29;20871;-66
2020/12/02 06:11:35;;;;;;;140.53;40.87;;;-4.90;99.90;;;;;;4932318;29;20242;-66
2020/12/02 06:14:08;;;;;;;117.27;37.43;;;-4.90;99.90;;;;;;4926399;29;20257;-66
2020/12/02 06:16:39;;;;;;;135.73;36.97;;;-4.90;99.90;;;;;;4891589;29;20746;-65
2020/12/02 06:19:16;;;;;;;125.33;37.53;;;-4.90;99.90;;;;;;4901342;29;20206;-67
2020/12/02 06:21:44;;;;;;;153.70;36.67;;;-4.90;99.90;;;;;;4912793;29;20201;-66
2020/12/02 06:24:12;;;;;;;105.87;32.50;;;-4.90;99.90;;;;;;4920269;28;20715;-66
2020/12/02 06:26:41;;;;;;;112.40;35.20;;;-4.90;99.90;;;;;;4970333;28;20251;-66
2020/12/02 06:29:24;;;;;;;152.53;37.30;;;-4.80;99.90;;;;;;4993812;28;20211;-66
2020/12/02 06:31:57;;;;;;;144.47;35.17;;;-4.80;99.90;;;;;;5028947;28;20307;-66
2020/12/02 06:34:27;;;;;;;105.70;32.97;;;-4.80;99.90;;;;;;5027663;28;20541;-66
2020/12/02 06:37:08;;;;;;;119.00;32.40;;;-4.70;99.90;;;;;;5028618;28;20218;-66
2020/12/02 06:39:38;;;;;;;95.27;28.00;;;-4.80;99.90;;;;;;5028152;28;20612;-66
2020/12/02 06:42:32;;;;;;;154.00;36.23;;;-4.70;99.90;;;;;;5029076;28;20325;-66
2020/12/02 06:45:30;;;;;;;118.93;34.47;;;-4.60;99.90;;;;;;4981585;28;20231;-66
2020/12/02 06:48:00;;;;;;;116.50;35.83;;;-4.60;99.90;;;;;;4988839;28;20212;-66
2020/12/02 06:50:29;;;;;;;134.77;37.63;;;-4.50;99.90;;;;;;4988560;28;20295;-66
2020/12/02 06:53:09;;;;;;;123.60;36.70;;;-4.50;99.90;;;;;;4968553;28;20552;-67
2020/12/02 06:55:36;;;;;;;131.60;38.70;;;-4.40;99.90;;;;;;4930783;29;20210;-66
2020/12/02 06:58:05;;;;;;;138.30;39.30;;;-4.40;99.90;;;;;;4912362;29;20234;-66
2020/12/02 07:00:42;;;;;;;152.17;42.63;;;-4.30;99.90;;;;;;4918010;29;20301;-66
2020/12/02 07:03:23;;;;;;;126.67;37.93;;;-4.30;99.90;;;;;;4912542;29;20277;-66
2020/12/02 07:05:54;;;;;;;142.27;40.97;;;-4.20;99.90;;;;;;4907358;29;20242;-66
2020/12/02 07:08:25;;;;;;;113.00;35.03;;;-4.20;99.90;;;;;;4916984;29;20206;-66
2020/12/02 07:11:00;;;;;;;102.40;33.23;;;-4.10;99.90;;;;;;4913163;29;20681;-66
2020/12/02 07:13:30;;;;;;;104.50;31.03;;;-4.00;99.90;;;;;;4921096;29;20220;-67
2020/12/02 07:15:58;;;;;;;80.80;27.17;;;-3.90;99.90;;;;;;4920080;29;20692;-66
2020/12/02 07:18:26;;;;;;;96.80;31.03;;;-3.80;99.90;;;;;;4927997;29;20778;-67
2020/12/02 07:21:04;;;;;;;99.10;32.10;;;-3.70;99.90;;;;;;4929498;29;20311;-65
2020/12/02 07:23:33;;;;;;;113.13;34.80;;;-3.60;99.90;;;;;;4942553;28;20479;-65
2020/12/02 07:26:01;;;;;;;112.93;36.57;;;-3.60;99.90;;;;;;4967065;28;20216;-65
2020/12/02 07:28:28;;;;;;;135.07;41.33;;;-3.60;99.90;;;;;;4991801;28;20289;-65
2020/12/02 07:30:55;;;;;;;137.50;40.87;;;-3.50;99.90;;;;;;5004329;28;20233;-66
2020/12/02 07:33:28;;;;;;;120.53;38.00;;;-3.60;99.90;;;;;;5024188;28;20208;-66
2020/12/02 07:36:07;;;;;;;130.57;42.20;;;-3.60;99.90;;;;;;5018838;28;20197;-67
2020/12/02 07:38:33;;;;;;;132.60;39.13;;;-3.60;99.90;;;;;;5020006;28;20289;-67
2020/12/02 07:41:15;;;;;;;135.77;40.43;;;-3.50;99.90;;;;;;5001612;28;20212;-66
2020/12/02 07:43:47;;;;;;;118.80;35.97;;;-3.50;99.90;;;;;;5008226;28;20230;-67
2020/12/02 07:46:14;;;;;;;105.87;33.43;;;-3.50;99.90;;;;;;5006647;28;20314;-65
2020/12/02 07:48:42;;;;;;;102.93;31.90;;;-3.50;99.90;;;;;;5008511;28;20210;-66
2020/12/02 07:51:14;;;;;;;175.77;41.63;;;-3.40;99.90;;;;;;5002619;28;20627;-66
2020/12/02 07:53:54;;;;;;;115.53;34.87;;;-3.40;99.90;;;;;;5000919;28;20311;-66
2020/12/02 07:56:27;;;;;;;122.20;34.03;;;-3.40;99.90;;;;;;4977204;28;20199;-67
2020/12/02 07:58:56;;;;;;;108.63;34.67;;;-3.30;99.90;;;;;;4988185;28;20212;-65
2020/12/02 08:02:01;;;;;;;92.07;31.10;;;-3.30;99.90;;;;;;4988455;28;20208;-66
2020/12/02 08:04:34;;;;;;;108.27;34.00;;;-3.20;99.90;;;;;;4936193;28;20248;-67
2020/12/02 08:07:04;;;;;;;113.57;34.93;;;-3.10;99.90;;;;;;4948411;28;20231;-67
2020/12/02 08:09:38;;;;;;;111.10;36.70;;;-3.00;99.90;;;;;;4930177;29;20206;-66
2020/12/02 08:12:08;;;;;;;125.03;38.70;;;-3.00;99.90;;;;;;4920264;29;20214;-66
2020/12/02 08:14:38;;;;;;;114.37;35.50;;;-3.00;99.90;;;;;;4894376;29;20571;-66
2020/12/02 08:17:13;;;;;;;90.03;30.17;;;-3.00;99.90;;;;;;4887583;29;20210;-66
2020/12/02 08:19:41;;;;;;;93.33;29.00;;;-3.00;99.90;;;;;;4885433;29;20215;-67
2020/12/02 08:22:16;;;;;;;81.83;29.07;;;-2.90;99.90;;;;;;4890062;29;20273;-65
2020/12/02 08:24:45;;;;;;;82.67;29.50;;;-2.80;99.90;;;;;;4879071;29;20242;-65
2020/12/02 08:27:13;;;;;;;97.30;31.23;;;-2.70;99.90;;;;;;4882190;29;20206;-66
2020/12/02 08:29:48;;;;;;;125.93;38.43;;;-2.70;99.90;;;;;;4901147;29;20605;-66
2020/12/02 08:32:21;;;;;;;92.60;33.60;;;-2.70;99.90;;;;;;4900428;29;20805;-66
2020/12/02 08:34:48;;;;;;;81.57;30.03;;;-2.60;99.90;;;;;;4895784;29;20211;-66
2020/12/02 08:37:22;;;;;;;90.67;29.00;;;-2.60;99.90;;;;;;4900842;29;20208;-67
2020/12/02 08:39:53;;;;;;;97.90;31.00;;;-2.50;99.90;;;;;;4901826;29;20214;-66
2020/12/02 08:42:30;;;;;;;99.27;33.70;;;-2.50;99.90;;;;;;4902158;29;20296;-66
2020/12/02 08:45:15;;;;;;;108.27;35.67;;;-2.40;99.90;;;;;;4922219;29;20233;-67
2020/12/02 08:47:42;;;;;;;111.83;35.53;;;-2.50;99.90;;;;;;4928255;28;20359;-67
2020/12/02 08:50:28;;;;;;;103.33;32.47;;;-2.50;99.90;;;;;;4939620;28;20220;-66
2020/12/02 08:52:56;;;;;;;96.60;33.10;;;-2.60;99.90;;;;;;4908591;29;20313;-66
2020/12/02 08:55:25;;;;;;;80.23;28.03;;;-2.60;99.90;;;;;;4896941;29;20695;-66
2020/12/02 08:57:52;;;;;;;99.80;33.43;;;-2.60;99.90;;;;;;4909985;29;20604;-67
2020/12/02 09:00:22;;;;;;;82.97;29.77;;;-2.60;99.90;;;;;;4897831;29;20974;-67
2020/12/02 09:02:49;;;;;;;87.83;30.57;;;-2.50;99.90;;;;;;4888456;29;20527;-65
2020/12/02 09:05:16;;;;;;;88.87;28.90;;;-2.50;99.90;;;;;;4889226;29;20235;-66
2020/12/02 09:07:43;;;;;;;104.83;31.53;;;-2.50;99.90;;;;;;4893191;29;20828;-66
2020/12/02 09:10:10;;;;;;;85.23;28.30;;;-2.40;99.90;;;;;;4897764;29;20231;-66
2020/12/02 09:12:37;;;;;;;83.77;29.10;;;-2.40;99.90;;;;;;4898276;29;20217;-66
2020/12/02 09:15:04;;;;;;;85.00;28.57;;;-2.30;99.90;;;;;;4926438;29;20213;-66
2020/12/02 09:17:31;;;;;;;91.67;31.23;;;-2.30;99.90;;;;;;4925960;29;20572;-67
2020/12/02 09:19:58;;;;;;;93.47;30.17;;;-2.20;99.90;;;;;;4983888;28;20216;-66
2020/12/02 09:22:24;;;;;;;95.80;32.97;;;-2.20;99.90;;;;;;4944830;28;20603;-67
2020/12/02 09:24:51;;;;;;;83.43;27.13;;;-2.20;99.90;;;;;;4945089;28;20289;-67
2020/12/02 09:27:18;;;;;;;85.43;29.80;;;-2.10;99.90;;;;;;4945344;28;20225;-67
2020/12/02 09:29:45;;;;;;;73.60;28.57;;;-2.00;99.90;;;;;;4940116;28;20213;-67
2020/12/02 09:32:12;;;;;;;78.37;28.00;;;-2.00;99.90;;;;;;4925760;29;20545;-67
2020/12/02 09:34:39;;;;;;;81.93;29.67;;;-1.30;99.90;;;;;;4924084;29;20276;-66
2020/12/02 09:37:08;;;;;;;61.33;25.00;;;-1.90;99.90;;;;;;4946178;28;20208;-66
2020/12/02 09:39:35;;;;;;;73.10;26.17;;;-1.80;99.90;;;;;;4943959;28;20640;-66
2020/12/02 09:42:19;;;;;;;66.73;24.23;;;-1.80;99.90;;;;;;4915474;29;20217;-66
2020/12/02 09:44:58;;;;;;;92.63;30.47;;;-1.70;99.90;;;;;;4904672;29;20791;-66
2020/12/02 09:47:24;;;;;;;74.33;27.40;;;-1.70;99.90;;;;;;4907489;29;20202;-66
2020/12/02 09:49:51;;;;;;;63.20;23.63;;;-1.60;99.90;;;;;;4906685;29;20670;-66
2020/12/02 09:52:38;;;;;;;64.07;24.37;;;-1.70;99.90;;;;;;4944610;28;20260;-66
2020/12/02 09:55:11;;;;;;;56.93;22.53;;;-1.70;99.90;;;;;;4984350;28;20210;-66
2020/12/02 09:57:38;;;;;;;60.87;22.97;;;-1.60;99.90;;;;;;4984451;28;20282;-66
2020/12/02 10:00:08;;;;;;;67.87;25.30;;;-1.50;99.90;;;;;;4985190;28;20216;-67
2020/12/02 10:03:10;;;;;;;70.07;27.07;;;-1.50;99.90;;;;;;4983692;28;20207;-66
2020/12/02 10:05:59;;;;;;;65.23;25.90;;;-1.50;99.90;;;;;;4982553;28;20313;-66
2020/12/02 10:08:41;;;;;;;72.10;26.70;;;-1.50;99.90;;;;;;4983786;28;20745;-66
2020/12/02 10:11:17;;;;;;;77.97;27.67;;;-1.50;99.90;;;;;;4983350;28;20211;-66
2020/12/02 10:14:06;;;;;;;69.13;25.67;;;-1.50;99.90;;;;;;4985395;28;20779;-66
2020/12/02 10:16:39;;;;;;;68.07;25.10;;;-1.50;99.90;;;;;;4947722;28;20768;-66
2020/12/02 10:19:38;;;;;;;66.10;25.57;;;-1.50;99.90;;;;;;4972246;28;20248;-67
2020/12/02 10:22:34;;;;;;;69.17;24.90;;;-1.50;99.90;;;;;;5000792;28;20285;-66
2020/12/02 10:25:17;;;;;;;77.73;27.43;;;-1.50;99.90;;;;;;4995658;28;20242;-67
2020/12/02 10:28:16;;;;;;;68.47;26.37;;;-1.50;99.90;;;;;;5006064;28;20569;-66
2020/12/02 10:31:03;;;;;;;59.17;21.63;;;-1.50;99.90;;;;;;5003636;28;20222;-66
2020/12/02 10:33:50;;;;;;;59.10;22.33;;;-1.40;99.90;;;;;;5002519;28;20225;-65
2020/12/02 10:36:18;;;;;;;59.43;21.87;;;-1.40;99.90;;;;;;4997889;28;20213;-66
2020/12/02 10:38:50;;;;;;;63.93;23.80;;;-1.30;99.90;;;;;;4994408;28;20211;-65
2020/12/02 10:41:32;;;;;;;56.80;21.43;;;-1.20;99.90;;;;;;4960285;28;20320;-66
2020/12/02 10:44:14;;;;;;;67.67;24.20;;;-1.20;99.90;;;;;;4957926;28;20211;-65
2020/12/02 10:47:05;;;;;;;63.93;23.43;;;-1.20;99.90;;;;;;4962106;28;20232;-66
2020/12/02 10:49:34;;;;;;;58.53;21.73;;;-1.10;99.90;;;;;;4957613;28;20615;-65
2020/12/02 10:52:03;;;;;;;62.10;22.57;;;-1.10;99.90;;;;;;4952314;28;20197;-66
2020/12/02 10:54:34;;;;;;;58.23;22.60;;;-1.10;99.90;;;;;;4957230;28;20287;-66
2020/12/02 10:57:06;;;;;;;63.97;24.17;;;-1.10;99.90;;;;;;4940168;29;20253;-67
2020/12/02 10:59:33;;;;;;;65.97;25.17;;;-1.10;99.90;;;;;;4944315;29;20768;-66
2020/12/02 11:01:59;;;;;;;80.90;26.30;;;-1.00;99.90;;;;;;4959117;28;20211;-67
2020/12/02 11:04:26;;;;;;;66.30;24.50;;;-1.00;99.90;;;;;;4954057;28;20742;-66
2020/12/02 11:07:08;;;;;;;79.63;27.87;;;-1.00;99.90;;;;;;4956118;28;20770;-66
2020/12/02 11:09:51;;;;;;;70.50;24.80;;;-0.90;99.90;;;;;;4951939;28;20223;-65
2020/12/02 11:12:34;;;;;;;58.37;21.87;;;-0.90;99.90;;;;;;4941511;28;20208;-65
2020/12/02 11:15:10;;;;;;;62.00;23.13;;;-0.80;99.90;;;;;;4941807;28;20193;-66
2020/12/02 11:17:54;;;;;;;68.47;25.33;;;-0.70;99.90;;;;;;4948731;28;20212;-66
2020/12/02 11:20:24;;;;;;;54.13;20.43;;;-0.80;99.90;;;;;;4958628;28;20200;-66
2020/12/02 11:23:04;;;;;;;57.27;20.07;;;-0.70;99.90;;;;;;4942647;28;20205;-66
2020/12/02 11:25:39;;;;;;;47.50;18.70;;;-0.60;99.90;;;;;;4903320;29;20249;-66
2020/12/02 11:28:05;;;;;;;53.73;19.00;;;-0.60;99.90;;;;;;4924003;28;20205;-66
2020/12/02 11:30:35;;;;;;;49.17;19.33;;;-0.50;99.90;;;;;;4906188;29;20222;-66
2020/12/02 11:33:33;;;;;;;58.00;20.73;;;-0.50;99.90;;;;;;4914040;29;20206;-66
2020/12/02 11:36:29;;;;;;;43.63;18.77;;;-0.40;99.90;;;;;;4923879;29;20214;-67
2020/12/02 11:39:07;;;;;;;50.37;20.30;;;-0.30;99.90;;;;;;4888333;29;20732;-67
2020/12/02 11:41:42;;;;;;;58.70;20.57;;;-0.30;99.90;;;;;;4906872;29;20557;-66
2020/12/02 11:44:18;;;;;;;59.60;21.37;;;-0.30;99.90;;;;;;4906986;29;20213;-66
2020/12/02 11:46:52;;;;;;;49.50;19.30;;;-0.30;99.90;;;;;;4903540;29;20300;-66
2020/12/02 11:49:33;;;;;;;49.53;19.30;;;-0.20;99.90;;;;;;4904521;29;20210;-66
2020/12/02 11:52:12;;;;;;;52.17;19.97;;;-0.20;99.90;;;;;;4903254;29;20309;-66
2020/12/02 11:54:40;;;;;;;50.10;19.63;;;-0.20;99.90;;;;;;4891563;29;20472;-66
2020/12/02 11:57:11;;;;;;;52.37;20.17;;;-0.10;99.90;;;;;;4915038;29;20210;-68
2020/12/02 11:59:37;;;;;;;53.60;21.67;;;-0.10;99.90;;;;;;4945720;28;20208;-65
2020/12/02 12:02:40;;;;;;;52.97;19.67;;;-0.10;99.90;;;;;;4943833;28;20219;-65
2020/12/02 12:05:18;;;;;;;60.05;25.50;;;0.00;99.90;;;;;;4959056;28;20764;-66
2020/12/02 12:07:54;;;;;;;48.27;20.40;;;0.00;99.90;;;;;;4957210;28;20212;-66
2020/12/02 12:10:26;;;;;;;69.50;23.63;;;0.00;99.90;;;;;;4977006;28;20218;-66
2020/12/02 12:13:06;;;;;;;63.43;24.93;;;0.10;99.90;;;;;;4985745;28;20199;-66
2020/12/02 12:15:36;;;;;;;61.83;22.97;;;0.00;99.90;;;;;;4981336;28;20222;-66
2020/12/02 12:18:12;;;;;;;66.57;24.17;;;0.00;99.90;;;;;;4983138;28;20226;-66
2020/12/02 12:20:44;;;;;;;73.03;24.83;;;-0.10;99.90;;;;;;5000220;28;20242;-66
2020/12/02 12:23:23;;;;;;;79.83;27.83;;;-0.10;99.90;;;;;;5010076;28;20213;-67
2020/12/02 12:25:51;;;;;;;75.97;26.37;;;-0.10;99.90;;;;;;5024532;28;20253;-67
2020/12/02 12:28:21;;;;;;;72.77;24.57;;;-0.20;99.90;;;;;;5022101;28;20203;-67
2020/12/02 12:30:48;;;;;;;61.13;22.87;;;-0.20;99.90;;;;;;5010724;28;20301;-66
2020/12/02 12:33:22;;;;;;;54.70;21.87;;;-0.20;99.90;;;;;;5001989;28;20219;-67
2020/12/02 12:35:53;;;;;;;60.20;24.83;;;-0.10;99.90;;;;;;5000234;28;20214;-66
2020/12/02 12:38:26;;;;;;;61.87;23.37;;;-0.10;99.90;;;;;;5003166;28;20346;-67
2020/12/02 12:41:01;;;;;;;69.87;26.13;;;-0.10;99.90;;;;;;5007536;28;20201;-67
2020/12/02 12:43:36;;;;;;;63.77;25.17;;;-0.10;99.90;;;;;;5005872;28;20397;-67
2020/12/02 12:46:11;;;;;;;65.17;23.23;;;-0.20;99.90;;;;;;4986401;28;20323;-67
2020/12/02 12:48:39;;;;;;;62.47;22.63;;;-0.20;99.90;;;;;;4987626;28;20256;-68